Time;durP1;ratioP1;P1;durP2;ratioP2;P2;SDS_P1;SDS_P2;PMS_P1;PMS_P2;Temp;Humidity;BMP_temperature;BMP_pressure;BME280_temperature;BME280_humidity;BME280_pressure;Samples;Min_cycle;Max_cycle;Signal;HPM_P1;HPM_P2
2023/06/15 00:01:22;;;;;;;10.60;3.17;;;17.10;99.90;;;;;;5093902;28;20036;-76
2023/06/15 00:03:48;;;;;;;6.20;3.17;;;17.10;99.90;;;;;;5094852;28;20109;-76
2023/06/15 00:06:13;;;;;;;6.15;3.20;;;17.10;99.90;;;;;;5093534;28;20099;-76
2023/06/15 00:08:40;;;;;;;7.35;3.58;;;17.10;99.90;;;;;;5094689;28;20054;-76
2023/06/15 00:11:05;;;;;;;5.88;3.30;;;17.10;99.90;;;;;;5093334;28;20040;-76
2023/06/15 00:13:31;;;;;;;8.60;3.00;;;17.10;99.90;;;;;;5092729;28;20047;-76
2023/06/15 00:15:57;;;;;;;6.45;3.20;;;17.10;99.90;;;;;;5094646;28;20128;-76
2023/06/15 00:18:22;;;;;;;6.25;3.00;;;17.10;99.90;;;;;;5093254;28;20071;-76
2023/06/15 00:20:48;;;;;;;7.68;3.67;;;17.00;99.90;;;;;;5094566;28;20040;-76
2023/06/15 00:23:17;;;;;;;7.70;3.47;;;17.00;99.90;;;;;;5094333;28;20063;-77
2023/06/15 00:25:43;;;;;;;6.05;3.15;;;17.00;99.90;;;;;;5093116;28;20060;-76
2023/06/15 00:28:09;;;;;;;8.90;3.35;;;17.00;99.90;;;;;;5094374;28;20051;-76
2023/06/15 00:30:35;;;;;;;10.57;3.70;;;17.00;99.90;;;;;;5093405;28;20040;-76
2023/06/15 00:33:00;;;;;;;6.43;3.53;;;17.00;99.90;;;;;;5094049;28;20498;-76
2023/06/15 00:35:26;;;;;;;7.88;3.47;;;16.90;99.90;;;;;;5094299;28;20067;-76
2023/06/15 00:37:52;;;;;;;7.35;3.40;;;16.90;99.90;;;;;;5093060;28;20048;-76
2023/06/15 00:40:17;;;;;;;7.72;3.42;;;16.90;99.90;;;;;;5094311;28;20365;-76
2023/06/15 00:42:44;;;;;;;5.88;3.25;;;16.90;99.90;;;;;;5094173;28;20075;-76
2023/06/15 00:45:11;;;;;;;8.98;3.60;;;16.90;99.90;;;;;;5094454;28;20110;-76
2023/06/15 00:47:38;;;;;;;6.20;3.47;;;16.90;99.90;;;;;;5094142;28;20040;-76
2023/06/15 00:50:14;;;;;;;7.78;3.42;;;16.80;99.90;;;;;;5094103;28;20047;-76
2023/06/15 00:52:40;;;;;;;7.57;4.03;;;16.80;99.90;;;;;;5093903;28;20044;-76
2023/06/15 00:55:11;;;;;;;6.57;4.00;;;16.70;99.90;;;;;;5094015;28;20036;-76
2023/06/15 00:57:44;;;;;;;7.22;3.78;;;16.70;99.90;;;;;;5092683;28;20040;-76
2023/06/15 01:00:14;;;;;;;4.75;3.28;;;16.70;99.90;;;;;;5093978;28;20036;-76
2023/06/15 01:02:40;;;;;;;6.78;3.67;;;16.70;99.90;;;;;;5093936;28;20032;-76
2023/06/15 01:05:12;;;;;;;7.47;3.60;;;16.70;99.90;;;;;;5093631;28;20040;-75
2023/06/15 01:07:40;;;;;;;5.93;3.55;;;16.60;99.90;;;;;;5093625;28;20357;-76
2023/06/15 01:10:11;;;;;;;7.80;3.50;;;16.60;99.90;;;;;;5093915;28;20101;-76
2023/06/15 01:12:40;;;;;;;9.40;3.63;;;16.60;99.90;;;;;;5092839;28;20044;-76
2023/06/15 01:15:07;;;;;;;6.55;3.42;;;16.50;99.90;;;;;;5093504;28;20051;-76
2023/06/15 01:17:34;;;;;;;7.00;3.38;;;16.50;99.90;;;;;;5093777;28;20044;-76
2023/06/15 01:20:07;;;;;;;6.22;3.65;;;16.50;99.90;;;;;;5093588;28;20040;-76
2023/06/15 01:22:45;;;;;;;6.40;3.58;;;16.40;99.90;;;;;;5093737;28;20115;-76
2023/06/15 01:25:29;;;;;;;9.68;3.90;;;16.40;99.90;;;;;;5094942;28;20063;-76
2023/06/15 01:28:04;;;;;;;7.75;3.92;;;16.40;99.90;;;;;;5097817;28;20048;-76
2023/06/15 01:30:46;;;;;;;7.03;3.85;;;16.40;99.90;;;;;;5097834;28;20040;-76
2023/06/15 01:33:12;;;;;;;7.20;3.80;;;16.30;99.90;;;;;;5097660;28;20519;-76
2023/06/15 01:35:38;;;;;;;7.93;4.18;;;16.30;99.90;;;;;;5097648;28;20610;-76
2023/06/15 01:38:04;;;;;;;5.97;4.00;;;16.30;99.90;;;;;;5097611;28;20040;-76
2023/06/15 01:40:39;;;;;;;7.18;3.65;;;16.30;99.90;;;;;;5096229;28;20044;-76
2023/06/15 01:43:11;;;;;;;8.48;4.03;;;16.30;99.90;;;;;;5096188;28;20048;-75
2023/06/15 01:45:39;;;;;;;12.43;4.90;;;16.30;99.90;;;;;;5097609;28;20052;-76
2023/06/15 01:48:06;;;;;;;9.00;4.00;;;16.20;99.90;;;;;;5096304;28;20114;-76
2023/06/15 01:50:34;;;;;;;6.00;4.03;;;16.20;99.90;;;;;;5097392;28;20044;-76
2023/06/15 01:53:00;;;;;;;9.82;4.28;;;16.20;99.90;;;;;;5096086;28;20115;-76
2023/06/15 01:55:26;;;;;;;7.82;4.28;;;16.20;99.90;;;;;;5097362;28;20042;-76
2023/06/15 01:57:53;;;;;;;8.43;3.75;;;16.10;99.90;;;;;;5096167;28;20047;-76
2023/06/15 02:00:20;;;;;;;8.68;4.70;;;16.10;99.90;;;;;;5097237;28;20036;-76
2023/06/15 02:02:46;;;;;;;8.30;4.28;;;16.10;99.90;;;;;;5095893;28;20403;-76
2023/06/15 02:05:11;;;;;;;7.57;3.90;;;16.10;99.90;;;;;;5096873;28;20036;-76
2023/06/15 02:07:37;;;;;;;8.43;4.18;;;16.10;99.90;;;;;;5097022;28;20067;-75
2023/06/15 02:10:03;;;;;;;7.47;4.18;;;16.00;99.90;;;;;;5097155;28;20032;-76
2023/06/15 02:12:29;;;;;;;8.20;3.97;;;16.00;99.90;;;;;;5095975;28;20047;-76
2023/06/15 02:14:55;;;;;;;7.50;4.20;;;16.00;99.90;;;;;;5096984;28;20083;-76
2023/06/15 02:17:24;;;;;;;6.55;3.75;;;16.00;99.90;;;;;;5096650;28;20513;-76
2023/06/15 02:19:50;;;;;;;8.00;4.03;;;16.00;99.90;;;;;;5096726;28;20105;-76
2023/06/15 02:22:16;;;;;;;8.57;3.80;;;16.00;99.90;;;;;;5096839;28;20044;-76
2023/06/15 02:24:42;;;;;;;8.77;4.28;;;15.90;99.90;;;;;;5096562;28;20403;-76
2023/06/15 02:27:08;;;;;;;9.88;4.18;;;15.90;99.90;;;;;;5095274;28;20048;-76
2023/06/15 02:29:34;;;;;;;8.32;3.97;;;15.90;99.90;;;;;;5096569;28;20054;-76
2023/06/15 02:32:00;;;;;;;8.23;4.65;;;15.90;99.90;;;;;;5096500;28;20504;-76
2023/06/15 02:34:26;;;;;;;7.93;4.15;;;15.90;99.90;;;;;;5095381;28;20062;-76
2023/06/15 02:36:53;;;;;;;7.10;4.40;;;15.90;99.90;;;;;;5094589;28;20044;-76
2023/06/15 02:39:20;;;;;;;9.57;4.22;;;15.90;99.90;;;;;;5096502;28;20052;-76
2023/06/15 02:41:46;;;;;;;8.73;4.35;;;15.90;99.90;;;;;;5096511;28;20036;-75
2023/06/15 02:44:11;;;;;;;10.13;4.50;;;15.80;99.90;;;;;;5096409;28;20067;-75
2023/06/15 02:46:37;;;;;;;10.32;4.50;;;15.90;99.90;;;;;;5095033;28;20074;-76
2023/06/15 02:49:03;;;;;;;9.40;4.75;;;15.90;99.90;;;;;;5096075;28;20086;-76
2023/06/15 02:51:28;;;;;;;8.32;4.20;;;15.90;99.90;;;;;;5094875;28;20131;-76
2023/06/15 02:53:54;;;;;;;7.47;4.43;;;15.80;99.90;;;;;;5094887;28;20048;-75
2023/06/15 02:56:21;;;;;;;11.20;4.65;;;15.90;99.90;;;;;;5096069;28;20055;-75
2023/06/15 02:58:54;;;;;;;9.00;4.63;;;15.90;99.90;;;;;;5094771;28;20527;-75
2023/06/15 03:01:23;;;;;;;8.52;4.50;;;15.80;99.90;;;;;;5095786;28;20040;-75
2023/06/15 03:03:50;;;;;;;11.38;4.65;;;15.90;99.90;;;;;;5093435;28;20487;-75
2023/06/15 03:06:16;;;;;;;9.15;4.70;;;15.80;99.90;;;;;;5093660;28;20048;-75
2023/06/15 03:08:42;;;;;;;9.40;4.90;;;15.80;99.90;;;;;;5094583;28;20086;-75
2023/06/15 03:11:08;;;;;;;9.50;4.38;;;15.80;99.90;;;;;;5095886;28;20032;-75
2023/06/15 03:13:35;;;;;;;9.40;4.32;;;15.80;99.90;;;;;;5094415;28;20054;-75
2023/06/15 03:16:01;;;;;;;13.00;4.95;;;15.80;99.90;;;;;;5094232;28;20048;-74
2023/06/15 03:18:31;;;;;;;10.35;4.68;;;15.80;99.90;;;;;;5094161;28;20055;-75
2023/06/15 03:20:57;;;;;;;12.20;5.13;;;15.80;99.90;;;;;;5094366;28;20043;-76
2023/06/15 03:23:25;;;;;;;7.53;4.35;;;15.70;99.90;;;;;;5094094;28;20483;-75
2023/06/15 03:25:53;;;;;;;7.68;4.82;;;15.80;99.90;;;;;;5095367;28;20040;-75
2023/06/15 03:28:23;;;;;;;15.70;5.70;;;15.80;99.90;;;;;;5094018;28;20044;-75
2023/06/15 03:30:52;;;;;;;12.13;4.90;;;15.80;99.90;;;;;;5095440;28;20079;-76
2023/06/15 03:33:21;;;;;;;8.20;4.68;;;15.70;99.90;;;;;;5095326;28;20073;-75
2023/06/15 03:35:49;;;;;;;7.53;4.38;;;15.80;99.90;;;;;;5095365;28;20052;-76
2023/06/15 03:38:16;;;;;;;10.02;4.95;;;15.70;99.90;;;;;;5095229;28;20429;-75
2023/06/15 03:40:42;;;;;;;9.27;4.47;;;15.70;99.90;;;;;;5093923;28;20435;-76
2023/06/15 03:43:13;;;;;;;10.57;5.18;;;15.80;99.90;;;;;;5094986;28;20040;-76
2023/06/15 03:45:39;;;;;;;11.93;5.03;;;15.80;99.90;;;;;;5094062;28;20063;-76
2023/06/15 03:48:05;;;;;;;13.35;5.18;;;15.80;99.90;;;;;;5094137;28;20051;-76
2023/06/15 03:50:31;;;;;;;9.85;5.32;;;15.80;99.90;;;;;;5093625;28;20044;-76
2023/06/15 03:52:56;;;;;;;9.88;4.95;;;15.80;99.90;;;;;;5093344;28;20056;-76
2023/06/15 03:55:22;;;;;;;10.88;5.30;;;15.80;99.90;;;;;;5094292;28;20040;-76
2023/06/15 03:57:48;;;;;;;9.05;4.50;;;15.80;99.90;;;;;;5094104;28;20042;-76
2023/06/15 04:00:14;;;;;;;8.70;5.38;;;15.90;99.90;;;;;;5094875;28;20055;-76
2023/06/15 04:02:40;;;;;;;7.50;4.43;;;15.80;99.90;;;;;;5093715;28;20074;-76
2023/06/15 04:05:06;;;;;;;9.70;4.70;;;15.90;99.90;;;;;;5094787;28;20127;-76
2023/06/15 04:07:32;;;;;;;7.70;4.70;;;15.90;99.90;;;;;;5093201;28;20059;-76
2023/06/15 04:09:59;;;;;;;9.70;4.93;;;16.10;99.90;;;;;;5093109;28;20414;-76
2023/06/15 04:12:25;;;;;;;8.88;4.72;;;16.20;99.90;;;;;;5094654;28;20044;-76
2023/06/15 04:14:50;;;;;;;10.07;4.70;;;16.30;99.90;;;;;;5093355;28;20044;-76
2023/06/15 04:17:16;;;;;;;12.80;5.65;;;16.40;99.90;;;;;;5094568;28;20115;-76
2023/06/15 04:19:42;;;;;;;10.00;5.72;;;16.50;99.90;;;;;;5093377;28;20044;-76
2023/06/15 04:22:07;;;;;;;10.18;4.63;;;16.60;99.90;;;;;;5093247;28;20119;-76
2023/06/15 04:24:34;;;;;;;7.50;4.93;;;16.70;99.90;;;;;;5094002;28;20052;-76
2023/06/15 04:27:02;;;;;;;8.18;4.78;;;16.90;99.90;;;;;;5094450;28;20146;-76
2023/06/15 04:29:30;;;;;;;10.85;4.82;;;17.10;99.90;;;;;;5092793;28;20044;-76
2023/06/15 04:31:57;;;;;;;8.48;4.70;;;17.20;99.90;;;;;;5092804;28;20048;-76
2023/06/15 04:34:24;;;;;;;7.47;4.70;;;17.20;99.90;;;;;;5092946;28;20047;-76
2023/06/15 04:36:50;;;;;;;10.45;5.28;;;17.40;99.90;;;;;;5092712;28;20411;-76
2023/06/15 04:39:16;;;;;;;7.13;4.80;;;17.50;99.90;;;;;;5092738;28;20040;-76
2023/06/15 04:41:42;;;;;;;7.10;4.38;;;17.60;99.90;;;;;;5092864;28;20395;-76
2023/06/15 04:44:08;;;;;;;10.00;4.55;;;17.70;99.90;;;;;;5093874;28;20040;-76
2023/06/15 04:46:39;;;;;;;8.50;4.55;;;17.70;99.90;;;;;;5092792;28;20051;-76
2023/06/15 04:49:06;;;;;;;7.63;4.60;;;17.70;99.90;;;;;;5094028;28;20048;-76
2023/06/15 04:51:32;;;;;;;7.70;4.25;;;17.80;99.90;;;;;;5092528;28;20046;-76
2023/06/15 04:53:58;;;;;;;9.30;4.18;;;18.00;99.90;;;;;;5094001;28;20040;-76
2023/06/15 04:56:24;;;;;;;12.30;5.18;;;18.10;99.90;;;;;;5092707;28;20036;-76
2023/06/15 04:58:50;;;;;;;7.88;4.15;;;18.10;99.90;;;;;;5092218;28;20116;-76
2023/06/15 05:01:15;;;;;;;6.53;4.13;;;18.20;99.90;;;;;;5093851;28;20039;-76
2023/06/15 05:03:42;;;;;;;9.10;4.28;;;18.40;99.90;;;;;;5093941;28;20469;-76
2023/06/15 05:06:07;;;;;;;7.38;4.47;;;18.50;99.90;;;;;;5092576;28;20128;-76
2023/06/15 05:08:35;;;;;;;8.55;4.05;;;18.50;99.90;;;;;;5092391;28;20064;-76
2023/06/15 05:11:01;;;;;;;6.97;3.72;;;18.40;99.90;;;;;;5093553;28;20040;-76
2023/06/15 05:13:28;;;;;;;9.80;4.07;;;18.50;99.90;;;;;;5092188;28;20044;-76
2023/06/15 05:15:54;;;;;;;5.47;3.92;;;18.50;99.90;;;;;;5093572;28;20048;-76
2023/06/15 05:18:19;;;;;;;8.32;4.10;;;18.60;99.90;;;;;;5092110;28;20093;-76
2023/06/15 05:20:45;;;;;;;5.47;3.80;;;18.80;99.90;;;;;;5092147;28;20044;-76
2023/06/15 05:23:12;;;;;;;9.10;3.55;;;18.90;99.90;;;;;;5091841;28;20055;-76
2023/06/15 05:25:39;;;;;;;7.13;4.07;;;18.90;99.90;;;;;;5092012;28;20123;-76
2023/06/15 05:28:05;;;;;;;6.90;4.10;;;19.10;99.90;;;;;;5092169;28;20055;-76
2023/06/15 05:30:30;;;;;;;9.05;4.13;;;19.20;99.90;;;;;;5092449;28;20040;-76
2023/06/15 05:32:56;;;;;;;10.13;3.97;;;19.30;99.90;;;;;;5092278;28;20563;-76
2023/06/15 05:35:22;;;;;;;10.73;4.32;;;19.40;99.90;;;;;;5093234;28;20040;-76
2023/06/15 05:37:48;;;;;;;9.57;4.07;;;19.50;99.90;;;;;;5093509;28;20067;-76
2023/06/15 05:40:13;;;;;;;9.85;4.43;;;19.50;99.90;;;;;;5093524;28;20460;-76
2023/06/15 05:42:39;;;;;;;14.05;3.92;;;19.60;99.90;;;;;;5092165;28;20051;-76
2023/06/15 05:45:06;;;;;;;6.57;3.75;;;19.60;99.90;;;;;;5092066;28;20044;-76
2023/06/15 05:47:32;;;;;;;9.55;3.63;;;19.80;99.90;;;;;;5093349;28;20471;-76
2023/06/15 05:49:58;;;;;;;6.57;3.95;;;19.80;99.90;;;;;;5092991;28;20400;-76
2023/06/15 05:52:23;;;;;;;6.30;3.55;;;19.90;99.90;;;;;;5093371;28;20468;-77
2023/06/15 05:54:49;;;;;;;10.05;4.20;;;20.20;99.90;;;;;;5093422;28;20072;-77
2023/06/15 05:57:15;;;;;;;6.78;3.47;;;20.10;99.90;;;;;;5093841;28;20067;-77
2023/06/15 05:59:41;;;;;;;9.98;3.72;;;20.20;99.90;;;;;;5093137;28;20078;-77
2023/06/15 06:02:07;;;;;;;8.20;3.92;;;20.00;99.90;;;;;;5093014;28;20104;-76
2023/06/15 06:04:34;;;;;;;9.85;3.92;;;20.00;99.90;;;;;;5091632;28;20515;-77
2023/06/15 06:07:00;;;;;;;8.32;3.60;;;20.00;99.90;;;;;;5091690;28;20396;-76
2023/06/15 06:09:25;;;;;;;8.88;3.40;;;20.30;99.90;;;;;;5093111;28;20427;-76
2023/06/15 06:11:51;;;;;;;7.97;3.88;;;20.50;99.90;;;;;;5093327;28;20068;-76
2023/06/15 06:14:17;;;;;;;7.07;3.40;;;20.50;99.90;;;;;;5095384;28;20044;-77
2023/06/15 06:16:43;;;;;;;7.80;3.60;;;20.60;99.90;;;;;;5095363;28;20476;-77
2023/06/15 06:19:09;;;;;;;7.50;3.13;;;20.70;99.90;;;;;;5095220;28;20091;-75
2023/06/15 06:21:34;;;;;;;7.65;2.70;;;20.60;99.90;;;;;;5095189;28;20080;-75
2023/06/15 06:24:02;;;;;;;5.70;3.08;;;20.80;99.90;;;;;;5096495;28;20075;-75
2023/06/15 06:26:29;;;;;;;7.53;3.72;;;21.00;99.90;;;;;;5096574;28;20044;-75
2023/06/15 06:28:55;;;;;;;6.28;3.00;;;21.20;99.90;;;;;;5096334;28;20411;-75
2023/06/15 06:31:21;;;;;;;9.80;3.50;;;21.30;99.90;;;;;;5096626;28;20051;-75
2023/06/15 06:33:47;;;;;;;5.93;2.95;;;21.10;99.90;;;;;;5094918;28;20035;-75
2023/06/15 06:36:12;;;;;;;4.82;2.80;;;21.50;99.90;;;;;;5096294;28;20044;-75
2023/06/15 06:38:38;;;;;;;8.68;3.25;;;21.60;99.90;;;;;;5096368;28;20068;-75
2023/06/15 06:41:04;;;;;;;9.85;3.72;;;21.80;99.90;;;;;;5095068;28;20059;-75
2023/06/15 06:43:29;;;;;;;8.75;3.40;;;21.80;99.90;;;;;;5096081;28;20487;-76
2023/06/15 06:45:55;;;;;;;9.10;3.42;;;21.90;99.90;;;;;;5096321;28;20040;-75
2023/06/15 06:48:21;;;;;;;6.38;3.30;;;22.00;99.90;;;;;;5094742;28;20472;-73
2023/06/15 06:50:46;;;;;;;10.02;3.10;;;22.10;99.90;;;;;;5096216;28;20539;-74
2023/06/15 06:53:12;;;;;;;8.70;3.00;;;22.30;99.90;;;;;;5096217;28;20044;-74
2023/06/15 06:55:38;;;;;;;8.57;3.22;;;22.50;99.90;;;;;;5095016;28;20047;-74
2023/06/15 06:58:05;;;;;;;7.47;3.50;;;22.70;99.90;;;;;;5096123;28;20032;-75
2023/06/15 07:00:31;;;;;;;7.38;3.17;;;22.70;99.90;;;;;;5089955;28;20072;-75
2023/06/15 07:02:57;;;;;;;5.85;2.88;;;22.80;99.90;;;;;;5084289;28;20036;-75
2023/06/15 07:05:23;;;;;;;7.82;3.35;;;22.70;99.90;;;;;;5075606;28;20037;-75
2023/06/15 07:07:48;;;;;;;8.25;3.58;;;22.70;99.90;;;;;;5073987;28;20054;-77
2023/06/15 07:10:14;;;;;;;5.68;3.03;;;23.00;99.90;;;;;;5075359;28;20048;-76
2023/06/15 07:12:40;;;;;;;8.15;3.38;;;23.10;99.90;;;;;;5074175;28;20058;-75
2023/06/15 07:15:06;;;;;;;5.30;2.88;;;23.30;99.90;;;;;;5075387;28;20052;-76
2023/06/15 07:17:33;;;;;;;11.20;3.55;;;23.20;99.90;;;;;;5073815;28;20123;-76
2023/06/15 07:19:59;;;;;;;7.97;3.33;;;23.40;99.90;;;;;;5073835;28;20491;-76
2023/06/15 07:22:24;;;;;;;4.88;3.00;;;23.30;99.90;;;;;;5073838;28;20056;-77
2023/06/15 07:24:51;;;;;;;12.10;3.58;;;23.40;99.90;;;;;;5073570;28;20075;-76
2023/06/15 07:27:18;;;;;;;5.85;2.78;;;23.60;99.90;;;;;;5075149;28;20041;-75
2023/06/15 07:29:44;;;;;;;6.10;2.70;;;23.80;99.90;;;;;;5074709;28;20515;-76
2023/06/15 07:32:10;;;;;;;4.60;2.60;;;24.00;99.90;;;;;;5074638;28;20044;-77
2023/06/15 07:34:36;;;;;;;6.38;2.75;;;24.20;99.90;;;;;;5074665;28;20043;-76
2023/06/15 07:37:02;;;;;;;5.25;2.65;;;24.40;99.90;;;;;;5074869;28;20074;-77
2023/06/15 07:39:28;;;;;;;4.65;2.65;;;24.20;99.90;;;;;;5074607;28;20511;-76
2023/06/15 07:41:55;;;;;;;4.25;2.90;;;24.40;99.90;;;;;;5074868;28;20170;-77
2023/06/15 07:44:21;;;;;;;7.95;3.20;;;24.30;99.10;;;;;;5074488;28;20044;-76
2023/06/15 07:46:46;;;;;;;7.93;3.03;;;24.30;99.40;;;;;;5074391;28;20059;-77
2023/06/15 07:49:12;;;;;;;10.70;2.97;;;24.60;99.90;;;;;;5073086;28;20048;-77
2023/06/15 07:51:38;;;;;;;8.55;3.80;;;24.70;99.90;;;;;;5074665;28;20051;-76
2023/06/15 07:54:04;;;;;;;9.57;3.05;;;24.60;99.90;;;;;;5074634;28;20036;-77
2023/06/15 07:56:30;;;;;;;6.32;3.00;;;24.90;99.90;;;;;;5074642;28;20040;-77
2023/06/15 07:58:56;;;;;;;6.78;2.90;;;25.00;99.90;;;;;;5072995;28;20231;-76
2023/06/15 08:01:22;;;;;;;7.20;3.58;;;25.10;99.90;;;;;;5073216;28;20052;-77
2023/06/15 08:03:47;;;;;;;6.78;3.15;;;25.10;99.90;;;;;;5074044;28;20101;-77
2023/06/15 08:06:13;;;;;;;7.13;3.05;;;25.00;99.90;;;;;;5073916;28;20086;-76
2023/06/15 08:08:39;;;;;;;11.55;3.65;;;25.10;99.90;;;;;;5072702;28;20044;-76
2023/06/15 08:11:05;;;;;;;7.60;2.97;;;25.10;99.90;;;;;;5073087;28;20055;-78
2023/06/15 08:13:31;;;;;;;6.05;3.17;;;25.10;99.90;;;;;;5074253;28;20044;-77
2023/06/15 08:15:58;;;;;;;11.00;2.78;;;25.30;99.90;;;;;;5073817;28;20044;-77
2023/06/15 08:18:23;;;;;;;8.23;3.20;;;25.30;99.90;;;;;;5072621;28;20049;-78
2023/06/15 08:20:49;;;;;;;9.00;3.00;;;25.50;99.90;;;;;;5073956;28;20089;-78
2023/06/15 08:23:15;;;;;;;11.25;3.45;;;25.60;99.90;;;;;;5072113;28;20462;-77
2023/06/15 08:25:41;;;;;;;8.02;2.70;;;25.80;99.90;;;;;;5072811;28;20131;-77
2023/06/15 08:28:08;;;;;;;6.53;3.13;;;25.90;99.90;;;;;;5073565;28;20040;-78
2023/06/15 08:30:35;;;;;;;6.15;2.80;;;25.60;99.90;;;;;;5073834;28;20044;-77
2023/06/15 08:33:01;;;;;;;6.57;3.13;;;25.90;99.90;;;;;;5073851;28;20052;-78
2023/06/15 08:35:26;;;;;;;4.78;3.00;;;25.90;99.90;;;;;;5072134;28;20110;-77
2023/06/15 08:37:53;;;;;;;5.15;3.00;;;25.90;99.90;;;;;;5072338;28;20454;-77
2023/06/15 08:40:19;;;;;;;5.65;3.58;;;26.00;99.90;;;;;;5073600;28;20040;-76
2023/06/15 08:42:45;;;;;;;7.75;2.72;;;25.90;99.90;;;;;;5072537;28;20520;-76
2023/06/15 08:45:12;;;;;;;5.57;3.17;;;25.70;99.90;;;;;;5073365;28;20527;-76
2023/06/15 08:47:38;;;;;;;10.27;4.20;;;25.90;99.90;;;;;;5072370;28;20084;-76
2023/06/15 08:50:06;;;;;;;5.75;3.08;;;25.70;99.90;;;;;;5072179;28;20123;-76
2023/06/15 08:52:33;;;;;;;6.93;2.95;;;25.90;99.90;;;;;;5072089;28;20093;-76
2023/06/15 08:55:01;;;;;;;12.55;3.50;;;26.00;99.90;;;;;;5072364;28;20044;-76
2023/06/15 08:57:27;;;;;;;8.93;2.95;;;26.20;99.90;;;;;;5073229;28;20373;-76
2023/06/15 08:59:53;;;;;;;6.55;3.38;;;26.30;99.90;;;;;;5072002;28;20080;-76
2023/06/15 09:02:21;;;;;;;11.32;3.20;;;26.40;99.90;;;;;;5073454;28;20048;-77
2023/06/15 09:04:50;;;;;;;9.23;3.47;;;26.40;99.90;;;;;;5071957;28;20049;-76
2023/06/15 09:07:17;;;;;;;8.93;3.28;;;26.30;99.90;;;;;;5073117;28;20658;-76
2023/06/15 09:10:20;;;;;;;8.80;3.20;;;26.40;99.90;;;;;;5071879;28;20052;-77
2023/06/15 09:12:50;;;;;;;5.72;3.10;;;26.30;99.90;;;;;;5072186;28;20049;-78
2023/06/15 09:15:36;;;;;;;7.55;3.40;;;26.20;99.90;;;;;;5072384;28;20071;-77
2023/06/15 09:18:02;;;;;;;6.97;2.80;;;26.40;99.90;;;;;;5071449;28;20113;-76
2023/06/15 09:20:36;;;;;;;7.97;2.63;;;26.40;99.90;;;;;;5073034;28;20060;-76
2023/06/15 09:23:04;;;;;;;6.63;3.10;;;26.60;99.90;;;;;;5071634;28;20131;-76
2023/06/15 09:25:33;;;;;;;6.38;2.80;;;26.50;99.90;;;;;;5073190;28;20053;-77
2023/06/15 09:28:01;;;;;;;8.25;3.08;;;26.70;99.90;;;;;;5071608;28;20048;-77
2023/06/15 09:30:34;;;;;;;8.63;3.63;;;26.40;99.90;;;;;;5071766;28;20048;-78
2023/06/15 09:33:19;;;;;;;5.18;2.60;;;26.40;98.30;;;;;;5072935;28;20052;-78
2023/06/15 09:36:07;;;;;;;6.82;3.00;;;26.20;95.90;;;;;;5077338;28;20759;-77
2023/06/15 09:38:36;;;;;;;6.00;2.92;;;26.20;98.50;;;;;;5088508;28;20390;-78
2023/06/15 09:41:06;;;;;;;6.47;2.80;;;26.30;99.80;;;;;;5087885;28;20060;-78
2023/06/15 09:43:39;;;;;;;7.97;3.03;;;26.30;99.90;;;;;;5087010;28;20044;-77
2023/06/15 09:46:13;;;;;;;5.18;2.85;;;26.60;99.90;;;;;;5088751;28;20047;-79
2023/06/15 09:48:39;;;;;;;6.30;2.80;;;26.70;99.90;;;;;;5092088;28;20044;-79
2023/06/15 09:51:05;;;;;;;7.63;3.17;;;26.70;99.90;;;;;;5091463;28;20043;-78
2023/06/15 09:53:31;;;;;;;5.43;2.75;;;26.70;99.90;;;;;;5092786;28;20071;-81
2023/06/15 09:56:01;;;;;;;6.10;2.80;;;26.50;99.90;;;;;;5091395;28;20778;-79
2023/06/15 09:58:30;;;;;;;8.98;3.00;;;26.10;98.40;;;;;;5078318;28;20048;-79
2023/06/15 10:00:57;;;;;;;5.93;3.15;;;26.30;99.90;;;;;;5088305;28;20096;-80
2023/06/15 10:03:25;;;;;;;4.28;2.78;;;26.00;99.90;;;;;;5092218;28;20441;-80
2023/06/15 10:06:11;;;;;;;3.83;2.70;;;26.10;98.90;;;;;;5090932;28;20043;-80
2023/06/15 10:08:40;;;;;;;6.30;2.72;;;25.60;99.10;;;;;;5090571;28;20055;-80
2023/06/15 10:11:06;;;;;;;5.85;2.80;;;25.60;99.90;;;;;;5090737;28;20059;-80
2023/06/15 10:13:48;;;;;;;4.57;3.10;;;25.90;99.90;;;;;;5092850;28;20107;-81
2023/06/15 10:16:17;;;;;;;6.72;2.78;;;25.70;99.50;;;;;;5090665;28;20036;-81
2023/06/15 10:18:46;;;;;;;5.78;2.88;;;25.30;97.30;;;;;;5092528;28;20048;-81
2023/06/15 10:21:18;;;;;;;6.03;2.58;;;25.70;99.90;;;;;;5091213;28;20087;-81
2023/06/15 10:23:49;;;;;;;5.03;2.78;;;25.80;96.80;;;;;;5090582;28;20052;-80
2023/06/15 10:26:16;;;;;;;5.78;2.70;;;25.90;99.00;;;;;;5091310;28;20471;-80
2023/06/15 10:28:46;;;;;;;4.70;2.60;;;26.10;99.90;;;;;;5091832;28;20044;-81
2023/06/15 10:31:22;;;;;;;6.65;2.30;;;26.20;99.90;;;;;;5090931;28;20043;-80
2023/06/15 10:34:11;;;;;;;4.35;2.58;;;26.60;99.90;;;;;;5092446;28;20043;-81
2023/06/15 10:36:47;;;;;;;4.40;2.50;;;26.00;99.10;;;;;;5091197;28;20066;-80
2023/06/15 10:39:19;;;;;;;5.55;2.25;;;26.50;97.90;;;;;;5090377;28;20403;-82
2023/06/15 10:41:45;;;;;;;4.28;2.22;;;25.70;95.00;;;;;;5090724;28;20078;-81
2023/06/15 10:44:15;;;;;;;5.07;2.60;;;26.10;98.10;;;;;;5090711;28;20075;-80
2023/06/15 10:46:41;;;;;;;6.70;2.40;;;26.30;98.80;;;;;;5090801;28;20487;-78
2023/06/15 10:49:08;;;;;;;4.50;2.67;;;26.30;98.80;;;;;;5079779;28;20060;-79
2023/06/15 10:51:50;;;;;;;6.00;2.80;;;26.30;98.10;;;;;;5118832;27;20123;-81
2023/06/15 10:54:25;;;;;;;6.63;2.72;;;26.30;97.50;;;;;;5076093;28;20044;-81
2023/06/15 10:56:55;;;;;;;5.30;2.97;;;26.20;98.60;;;;;;5083970;28;20045;-81
2023/06/15 10:59:41;;;;;;;7.30;2.58;;;26.30;99.20;;;;;;5075636;28;20040;-80
2023/06/15 11:02:29;;;;;;;4.95;2.72;;;26.10;97.30;;;;;;5091047;28;20048;-80
2023/06/15 11:05:08;;;;;;;6.90;3.17;;;26.30;97.30;;;;;;5094767;28;20071;-80
2023/06/15 11:07:47;;;;;;;4.40;2.78;;;25.60;97.60;;;;;;5094461;28;20035;-80
2023/06/15 11:10:31;;;;;;;7.95;2.97;;;25.90;97.60;;;;;;5094104;28;20071;-80
2023/06/15 11:13:04;;;;;;;7.38;3.30;;;25.50;97.70;;;;;;5093756;28;20108;-82
2023/06/15 11:15:37;;;;;;;10.43;3.25;;;25.70;96.40;;;;;;5093579;28;20055;-83
2023/06/15 11:18:05;;;;;;;11.85;3.85;;;25.90;96.40;;;;;;5094185;28;20507;-83
2023/06/15 11:20:44;;;;;;;10.13;3.38;;;25.40;97.20;;;;;;5093373;28;20377;-84
2023/06/15 11:23:14;;;;;;;6.63;3.25;;;24.90;98.90;;;;;;5083081;28;20408;-78
2023/06/15 11:25:46;;;;;;;7.07;2.85;;;24.90;98.90;;;;;;5074892;28;20476;-76
2023/06/15 11:28:15;;;;;;;9.80;3.10;;;25.40;97.90;;;;;;5075050;28;20119;-77
2023/06/15 11:30:42;;;;;;;5.55;2.80;;;25.60;98.30;;;;;;5074913;28;20068;-78
2023/06/15 11:33:12;;;;;;;7.13;2.85;;;25.50;98.60;;;;;;5074670;28;20048;-77
2023/06/15 11:35:38;;;;;;;8.60;3.22;;;25.70;98.60;;;;;;5073961;28;20495;-77
2023/06/15 11:38:07;;;;;;;5.10;2.55;;;25.90;97.40;;;;;;5073301;28;20040;-78
2023/06/15 11:40:34;;;;;;;6.03;3.13;;;25.80;97.20;;;;;;5074931;28;20094;-77
2023/06/15 11:43:02;;;;;;;7.10;2.83;;;25.50;97.70;;;;;;5074708;28;20101;-77
2023/06/15 11:45:28;;;;;;;7.65;3.00;;;25.70;97.40;;;;;;5074605;28;20048;-77
2023/06/15 11:47:54;;;;;;;6.13;2.85;;;25.80;96.80;;;;;;5074521;28;20044;-77
2023/06/15 11:50:20;;;;;;;6.50;3.13;;;25.60;95.70;;;;;;5079930;28;20514;-81
2023/06/15 11:52:47;;;;;;;13.30;3.08;;;25.30;96.70;;;;;;5094549;28;20063;-81
2023/06/15 11:55:16;;;;;;;8.00;2.60;;;25.30;96.50;;;;;;5093023;28;20476;-78
2023/06/15 11:57:45;;;;;;;6.93;2.58;;;25.50;95.10;;;;;;5072438;28;20514;-82
2023/06/15 12:00:12;;;;;;;6.13;3.00;;;25.20;93.90;;;;;;5073300;28;20040;-79
2023/06/15 12:02:40;;;;;;;8.18;2.80;;;25.30;94.30;;;;;;5073131;28;20044;-82
2023/06/15 12:05:09;;;;;;;6.57;2.85;;;25.50;95.50;;;;;;5072735;28;20451;-81
2023/06/15 12:07:37;;;;;;;4.97;2.47;;;25.60;95.80;;;;;;5074065;28;20090;-79
2023/06/15 12:10:04;;;;;;;7.18;2.78;;;25.70;95.30;;;;;;5105755;28;20044;-79
2023/06/15 12:12:32;;;;;;;7.57;2.35;;;25.90;96.00;;;;;;5073354;28;20048;-80
2023/06/15 12:15:05;;;;;;;3.92;2.40;;;26.20;95.10;;;;;;5073939;28;20051;-79
2023/06/15 12:17:32;;;;;;;5.47;1.98;;;26.00;94.40;;;;;;5106964;28;20048;-79
2023/06/15 12:20:09;;;;;;;6.78;2.85;;;25.90;95.00;;;;;;5072792;28;20599;-78
2023/06/15 12:22:46;;;;;;;8.75;2.63;;;26.00;94.20;;;;;;5072077;28;20056;-80
2023/06/15 12:25:14;;;;;;;10.45;3.20;;;25.90;94.20;;;;;;5072497;28;20044;-79
2023/06/15 12:27:49;;;;;;;8.27;2.83;;;26.10;95.40;;;;;;5073917;28;20044;-81
2023/06/15 12:30:20;;;;;;;6.72;3.30;;;26.40;96.30;;;;;;5106158;28;20053;-81
2023/06/15 12:32:49;;;;;;;8.95;3.08;;;26.10;93.90;;;;;;5106147;28;20052;-81
2023/06/15 12:35:41;;;;;;;8.38;2.92;;;26.10;94.70;;;;;;5073490;28;20063;-78
2023/06/15 12:38:08;;;;;;;;;;;26.00;94.70;;;;;;5073532;28;20498;-81
2023/06/15 12:40:41;;;;;;;8.23;3.20;;;25.80;93.90;;;;;;5106158;28;19920;-80
2023/06/15 12:43:07;;;;;;;13.32;3.95;;;25.80;94.50;;;;;;5074307;28;20044;-81
2023/06/15 12:45:33;;;;;;;6.10;2.78;;;25.50;94.80;;;;;;5072561;28;20047;-80
2023/06/15 12:48:00;;;;;;;5.95;2.60;;;25.60;93.90;;;;;;5106226;28;20125;-81
2023/06/15 12:50:28;;;;;;;9.27;2.97;;;26.00;94.60;;;;;;5074059;28;20419;-81